Austin, Colorado
Current Conditions -  °F | °C
As of 9:15 AM on Sunday 23 Nov 2014 (Local Time) from KAJZ Reporting Station
Overcast Overcast  
Wind Chill: 26°   Ceiling: 9000
Heat Index: 35°   Visibility: 10mi
Dew Point: 31°   Wind: 15mph
Humidity: 85%   Direction: 260°W
Pressure: 29.95"   Gusts: 18mph
Location:  38.78°N, 107.95°W
Report Text: KAJZ 231615Z AUTO 26013G16KT 10SM SCT009 SCT050 OVC090 02/00 A2995 RMK AO2 T00181004
Loading
Personal Weather Stations






























Interactive Weather Map New forecast layout! Learn more

10-Day Weather Forecast

Advertisements
Track Severe Weather on mobile